Time;durP1;ratioP1;P1;durP2;ratioP2;P2;SDS_P1;SDS_P2;PMS_P1;PMS_P2;Temp;Humidity;BMP_temperature;BMP_pressure;BME280_temperature;BME280_humidity;BME280_pressure;Samples;Min_cycle;Max_cycle;Signal;HPM_P1;HPM_P2
2023/04/21 00:01:33;;;;;;;5.60;2.28;;;;;;;;;;5048642;28;20068;-50
2023/04/21 00:04:08;;;;;;;5.70;1.85;;;;;;;;;;5054107;28;20045;-48
2023/04/21 00:06:36;;;;;;;6.25;2.55;;;;;;;;;;5056797;28;20064;-49
2023/04/21 00:09:10;;;;;;;3.80;2.30;;;;;;;;;;5053006;28;20338;-50
2023/04/21 00:11:37;;;;;;;;;;;;;;;;;;5052846;28;20438;-53
2023/04/21 00:14:04;;;;;;;4.00;2.00;;;;;;;;;;5055089;28;19929;-51
2023/04/21 00:16:38;;;;;;;2.83;2.08;;;;;;;;;;5056294;28;20052;-52
2023/04/21 00:19:06;;;;;;;10.88;2.30;;;;;;;;;;5056912;28;20106;-53
2023/04/21 00:21:39;;;;;;;3.42;2.20;;;;;;;;;;5057338;28;20049;-53
2023/04/21 00:24:07;;;;;;;6.25;2.35;;;;;;;;;;5054914;28;20055;-55
2023/04/21 00:26:34;;;;;;;;;;;;;;;;;;5054131;28;20160;-55
2023/04/21 00:29:08;;;;;;;8.75;2.65;;;;;;;;;;5053588;28;19925;-56
2023/04/21 00:31:35;;;;;;;3.97;1.85;;;;;;;;;;5052317;28;20126;-57
2023/04/21 00:34:09;;;;;;;3.75;2.85;;;;;;;;;;5051796;28;20113;-62
2023/04/21 00:36:37;;;;;;;2.75;2.13;;;;;;;;;;5056566;28;20044;-60
2023/04/21 00:39:04;;;;;;;7.00;2.30;;;;;;;;;;5055088;28;20052;-60
2023/04/21 00:41:38;;;;;;;2.63;2.03;;;;;;;;;;5053353;28;20044;-60
2023/04/21 00:44:12;;;;;;;6.90;2.25;;;;;;;;;;5054593;28;20471;-60
2023/04/21 00:46:45;;;;;;;3.92;2.50;;;;;;;;;;5054968;28;20414;-60
2023/04/21 00:49:13;;;;;;;5.55;2.42;;;;;;;;;;5052971;28;20049;-61
2023/04/21 00:51:40;;;;;;;6.20;2.63;;;;;;;;;;5056201;28;20084;-56
2023/04/21 00:54:13;;;;;;;5.80;2.95;;;;;;;;;;5053057;28;20049;-55
2023/04/21 00:56:41;;;;;;;8.60;2.58;;;;;;;;;;5052236;28;20139;-58
2023/04/21 00:59:08;;;;;;;4.05;2.55;;;;;;;;;;5055715;28;20087;-57
2023/04/21 01:01:41;;;;;;;6.50;2.95;;;;;;;;;;5051042;28;20052;-58
2023/04/21 01:04:09;;;;;;;4.20;2.72;;;;;;;;;;5051885;28;20088;-48
2023/04/21 01:06:36;;;;;;;6.28;2.63;;;;;;;;;;5053872;28;20072;-49
2023/04/21 01:09:14;;;;;;;4.82;2.58;;;;;;;;;;5055954;28;20048;-46
2023/04/21 01:11:41;;;;;;;8.43;3.13;;;;;;;;;;5050778;28;20064;-50
2023/04/21 01:14:14;;;;;;;4.32;2.83;;;;;;;;;;5050857;28;20049;-50
2023/04/21 01:16:43;;;;;;;3.90;2.47;;;;;;;;;;5051676;28;20052;-49
2023/04/21 01:19:11;;;;;;;8.68;2.38;;;;;;;;;;5053133;28;20057;-48
2023/04/21 01:21:46;;;;;;;5.70;2.53;;;;;;;;;;5052789;28;20432;-56
2023/04/21 01:24:13;;;;;;;3.65;2.47;;;;;;;;;;5053412;28;20436;-59
2023/04/21 01:26:48;;;;;;;5.93;2.50;;;;;;;;;;5047837;28;20059;-59
2023/04/21 01:29:16;;;;;;;4.30;2.30;;;;;;;;;;5049363;28;20056;-60
2023/04/21 01:31:46;;;;;;;9.70;2.67;;;;;;;;;;5050610;28;20056;-59
2023/04/21 01:34:19;;;;;;;3.53;2.47;;;;;;;;;;5051174;28;20048;-60
2023/04/21 01:36:46;;;;;;;5.05;2.50;;;;;;;;;;5051643;28;20055;-59
2023/04/21 01:39:20;;;;;;;5.10;2.50;;;;;;;;;;5048963;28;20053;-49
2023/04/21 01:41:47;;;;;;;4.38;2.50;;;;;;;;;;5047333;28;20508;-51
2023/04/21 01:44:15;;;;;;;3.80;2.70;;;;;;;;;;5047001;28;20079;-53
2023/04/21 01:46:48;;;;;;;10.70;2.88;;;;;;;;;;5036083;28;20050;-54
2023/04/21 01:49:15;;;;;;;4.88;3.00;;;;;;;;;;5051261;28;20098;-51
2023/04/21 01:51:43;;;;;;;;;;;;;;;;;;5050105;28;20056;-52
2023/04/21 01:54:16;;;;;;;5.07;3.00;;;;;;;;;;5044425;28;20383;-47
2023/04/21 01:56:44;;;;;;;8.43;3.08;;;;;;;;;;5050256;28;20055;-49
2023/04/21 01:59:17;;;;;;;4.03;2.58;;;;;;;;;;5050042;28;20110;-49
2023/04/21 02:01:45;;;;;;;12.63;3.10;;;;;;;;;;5046089;28;20064;-48
2023/04/21 02:04:12;;;;;;;5.82;3.08;;;;;;;;;;5048636;28;20056;-46
2023/04/21 02:06:46;;;;;;;4.13;3.10;;;;;;;;;;5050069;28;20106;-56
2023/04/21 02:09:14;;;;;;;4.22;3.17;;;;;;;;;;5048083;28;20060;-57
2023/04/21 02:11:48;;;;;;;3.85;3.00;;;;;;;;;;5046432;28;20041;-57
2023/04/21 02:14:15;;;;;;;4.22;2.60;;;;;;;;;;5048273;28;20527;-56
2023/04/21 02:16:43;;;;;;;5.50;2.85;;;;;;;;;;5048708;28;20084;-59
2023/04/21 02:19:16;;;;;;;8.07;2.70;;;;;;;;;;5034436;28;20126;-45
2023/04/21 02:21:44;;;;;;;3.88;2.78;;;;;;;;;;5046286;28;20666;-51
2023/04/21 02:24:17;;;;;;;4.50;3.25;;;;;;;;;;5048444;28;20053;-52
2023/04/21 02:26:45;;;;;;;7.22;2.67;;;;;;;;;;5049188;28;20058;-48
2023/04/21 02:29:12;;;;;;;5.35;2.88;;;;;;;;;;5044959;28;20603;-52
2023/04/21 02:31:46;;;;;;;4.65;2.75;;;;;;;;;;5049030;28;20577;-49
2023/04/21 02:34:29;;;;;;;4.32;2.80;;;;;;;;;;5051748;28;20056;-51
2023/04/21 02:37:03;;;;;;;5.85;3.00;;;;;;;;;;5052502;28;20045;-58
2023/04/21 02:39:30;;;;;;;6.88;3.28;;;;;;;;;;5052528;28;20052;-59
2023/04/21 02:42:04;;;;;;;10.70;2.92;;;;;;;;;;5051520;28;20056;-60
2023/04/21 02:44:38;;;;;;;;;;;;;;;;;;5052679;28;20071;-58
2023/04/21 02:47:14;;;;;;;8.23;2.67;;;;;;;;;;5050442;28;19928;-60
2023/04/21 02:49:42;;;;;;;4.53;2.90;;;;;;;;;;5052312;28;20055;-55
2023/04/21 02:52:09;;;;;;;5.15;2.92;;;;;;;;;;5052955;28;20062;-54
2023/04/21 02:54:42;;;;;;;7.93;2.63;;;;;;;;;;5050014;28;20136;-57
2023/04/21 02:57:09;;;;;;;5.28;2.88;;;;;;;;;;5053873;28;20142;-53
2023/04/21 02:59:37;;;;;;;5.53;3.08;;;;;;;;;;5052182;28;20098;-55
2023/04/21 03:02:10;;;;;;;3.20;2.55;;;;;;;;;;5049638;28;20052;-57
2023/04/21 03:04:38;;;;;;;4.95;3.28;;;;;;;;;;5051698;28;20064;-59
2023/04/21 03:07:12;;;;;;;5.68;2.95;;;;;;;;;;5050563;28;20416;-59
2023/04/21 03:09:40;;;;;;;8.98;3.40;;;;;;;;;;5051212;28;20045;-59
2023/04/21 03:12:07;;;;;;;;;;;;;;;;;;5049538;28;20052;-59
2023/04/21 03:14:41;;;;;;;10.55;2.88;;;;;;;;;;5051402;28;19930;-59
2023/04/21 03:17:08;;;;;;;;;;;;;;;;;;5053471;28;20049;-48
2023/04/21 03:19:41;;;;;;;10.63;2.95;;;;;;;;;;5050067;28;19936;-51
2023/04/21 03:22:08;;;;;;;4.00;2.58;;;;;;;;;;5051290;28;20045;-53
2023/04/21 03:24:36;;;;;;;3.72;3.03;;;;;;;;;;5048282;28;20063;-50
2023/04/21 03:27:09;;;;;;;8.98;4.10;;;;;;;;;;5048134;28;20055;-49
2023/04/21 03:29:37;;;;;;;;;;;;;;;;;;5053144;28;20045;-55
2023/04/21 03:32:10;;;;;;;10.07;3.25;;;;;;;;;;5052286;28;19927;-44
2023/04/21 03:34:38;;;;;;;6.07;2.95;;;;;;;;;;5053593;28;20056;-45
2023/04/21 03:37:11;;;;;;;7.93;3.50;;;;;;;;;;5051230;28;20083;-44
2023/04/21 03:39:39;;;;;;;9.45;3.22;;;;;;;;;;5052749;28;20052;-45
2023/04/21 03:42:06;;;;;;;6.10;3.40;;;;;;;;;;5045749;28;20689;-48
2023/04/21 03:44:46;;;;;;;6.45;3.78;;;;;;;;;;5050004;28;20053;-52
2023/04/21 03:47:13;;;;;;;6.47;3.53;;;;;;;;;;5048480;28;20135;-49
2023/04/21 03:49:47;;;;;;;6.07;3.30;;;;;;;;;;5047799;28;20095;-53
2023/04/21 03:52:21;;;;;;;4.28;2.95;;;;;;;;;;5054222;28;20045;-53
2023/04/21 03:54:55;;;;;;;5.22;3.10;;;;;;;;;;5056069;28;20867;-54
2023/04/21 03:57:23;;;;;;;7.78;3.08;;;;;;;;;;5052372;28;20047;-52
2023/04/21 03:59:50;;;;;;;4.75;3.00;;;;;;;;;;5052863;28;20045;-48
2023/04/21 04:02:23;;;;;;;5.53;3.13;;;;;;;;;;5051390;28;20139;-57
2023/04/21 04:04:51;;;;;;;;;;;;;;;;;;5051890;28;20060;-51
2023/04/21 04:07:25;;;;;;;8.15;3.90;;;;;;;;;;5055601;28;20284;-54
2023/04/21 04:09:52;;;;;;;8.63;3.47;;;;;;;;;;5055799;28;20088;-54
2023/04/21 04:12:19;;;;;;;5.47;3.22;;;;;;;;;;5053094;28;20561;-54
2023/04/21 04:14:52;;;;;;;7.25;3.20;;;;;;;;;;5056445;28;20052;-53
2023/04/21 04:17:19;;;;;;;8.75;3.30;;;;;;;;;;5050294;28;20143;-51
2023/04/21 04:19:53;;;;;;;7.07;3.63;;;;;;;;;;5051456;28;20102;-55
2023/04/21 04:22:20;;;;;;;8.07;3.35;;;;;;;;;;5054494;28;20105;-59
2023/04/21 04:24:48;;;;;;;7.60;3.30;;;;;;;;;;5053333;28;20140;-59
2023/04/21 04:27:21;;;;;;;4.57;3.05;;;;;;;;;;5054992;28;20091;-60
2023/04/21 04:29:49;;;;;;;4.32;2.70;;;;;;;;;;5056000;28;20049;-60
2023/04/21 04:32:16;;;;;;;9.60;2.95;;;;;;;;;;5058583;28;20052;-60
2023/04/21 04:34:51;;;;;;;6.10;3.00;;;;;;;;;;5055764;28;20053;-59
2023/04/21 04:37:20;;;;;;;2.95;2.40;;;;;;;;;;5056249;28;20052;-64
2023/04/21 04:39:55;;;;;;;10.85;2.83;;;;;;;;;;5055254;28;20122;-65
2023/04/21 04:42:24;;;;;;;;;;;;;;;;;;5052683;28;20076;-65
2023/04/21 04:44:56;;;;;;;7.07;2.80;;;;;;;;;;5053676;28;19935;-65
2023/04/21 04:47:29;;;;;;;6.78;3.15;;;;;;;;;;5055249;28;20130;-45
2023/04/21 04:49:57;;;;;;;7.43;2.75;;;;;;;;;;5057638;28;20052;-65
2023/04/21 04:52:30;;;;;;;5.70;2.53;;;;;;;;;;5055782;28;20419;-52
2023/04/21 04:54:58;;;;;;;5.50;2.95;;;;;;;;;;5056075;28;20136;-52
2023/04/21 04:57:25;;;;;;;7.00;2.67;;;;;;;;;;5059461;28;20482;-50
2023/04/21 04:59:59;;;;;;;5.63;2.75;;;;;;;;;;5059334;28;20152;-52
2023/04/21 05:02:26;;;;;;;7.57;2.63;;;;;;;;;;5054660;28;20056;-52
2023/04/21 05:04:53;;;;;;;7.40;3.15;;;;;;;;;;5058318;28;20053;-57
2023/04/21 05:07:27;;;;;;;4.97;3.15;;;;;;;;;;5056701;28;20447;-66
2023/04/21 05:09:55;;;;;;;7.72;2.90;;;;;;;;;;5058291;28;20151;-65
2023/04/21 05:12:28;;;;;;;6.03;2.90;;;;;;;;;;5054448;28;20052;-65
2023/04/21 05:14:55;;;;;;;4.65;2.90;;;;;;;;;;5057536;28;20147;-64
2023/04/21 05:17:23;;;;;;;3.83;2.60;;;;;;;;;;5055006;28;20056;-46
2023/04/21 05:19:56;;;;;;;5.75;2.80;;;;;;;;;;5057395;28;20053;-49
2023/04/21 05:22:24;;;;;;;7.55;2.80;;;;;;;;;;5053715;28;20040;-50
2023/04/21 05:24:58;;;;;;;11.25;2.92;;;;;;;;;;5056850;28;20084;-53
2023/04/21 05:27:26;;;;;;;4.65;2.88;;;;;;;;;;5058709;28;20044;-50
2023/04/21 05:29:54;;;;;;;5.45;2.83;;;;;;;;;;5057964;28;20068;-53
2023/04/21 05:32:28;;;;;;;7.15;3.28;;;;;;;;;;5055620;28;20136;-53
2023/04/21 05:34:55;;;;;;;8.02;2.80;;;;;;;;;;5057884;28;20427;-61
2023/04/21 05:37:29;;;;;;;4.22;2.85;;;;;;;;;;5056330;28;20122;-60
2023/04/21 05:39:56;;;;;;;5.03;2.78;;;;;;;;;;5053660;28;20168;-61
2023/04/21 05:42:24;;;;;;;6.35;2.95;;;;;;;;;;5056888;28;20969;-62
2023/04/21 05:45:04;;;;;;;3.75;2.75;;;;;;;;;;5055285;28;20128;-55
2023/04/21 05:47:31;;;;;;;9.35;2.53;;;;;;;;;;5053269;28;20049;-60
2023/04/21 05:50:06;;;;;;;4.88;2.67;;;;;;;;;;5058780;28;20515;-60
2023/04/21 05:52:33;;;;;;;;;;;;;;;;;;5054871;28;20476;-60
2023/04/21 05:55:01;;;;;;;6.35;2.53;;;;;;;;;;5053783;28;19924;-60
2023/04/21 05:57:35;;;;;;;6.72;3.25;;;;;;;;;;5054761;28;20689;-60
2023/04/21 06:00:02;;;;;;;7.75;3.13;;;;;;;;;;5056748;28;20419;-60
2023/04/21 06:02:29;;;;;;;6.13;2.90;;;;;;;;;;5056184;28;20619;-60
2023/04/21 06:05:04;;;;;;;3.33;2.58;;;;;;;;;;5045453;28;20063;-61
2023/04/21 06:07:31;;;;;;;5.22;3.00;;;;;;;;;;5056242;28;20076;-60
2023/04/21 06:10:06;;;;;;;6.90;3.15;;;;;;;;;;5054479;28;20044;-60
2023/04/21 06:12:33;;;;;;;3.65;2.70;;;;;;;;;;5055372;28;20056;-54
2023/04/21 06:15:13;;;;;;;5.53;2.78;;;;;;;;;;5055478;28;20530;-52
2023/04/21 06:17:40;;;;;;;3.67;2.80;;;;;;;;;;5054300;28;20054;-51
2023/04/21 06:20:21;;;;;;;3.53;2.60;;;;;;;;;;5057080;28;20084;-53
2023/04/21 06:22:49;;;;;;;4.53;2.88;;;;;;;;;;5057934;28;20074;-56
2023/04/21 06:25:22;;;;;;;4.85;2.83;;;;;;;;;;5053496;28;20136;-47
2023/04/21 06:27:49;;;;;;;2.90;2.42;;;;;;;;;;5052630;28;20511;-48
2023/04/21 06:30:17;;;;;;;7.53;2.42;;;;;;;;;;5052066;28;20060;-49
2023/04/21 06:32:50;;;;;;;4.35;2.80;;;;;;;;;;5053963;28;20040;-53
2023/04/21 06:35:19;;;;;;;7.18;2.72;;;;;;;;;;5053514;28;20053;-55
2023/04/21 06:37:52;;;;;;;6.50;2.70;;;;;;;;;;5058354;28;20056;-49
2023/04/21 06:40:19;;;;;;;6.55;2.63;;;;;;;;;;5053444;28;20543;-51
2023/04/21 06:42:47;;;;;;;8.65;2.63;;;;;;;;;;5053220;28;20127;-46
2023/04/21 06:45:27;;;;;;;10.13;2.78;;;;;;;;;;5055271;28;20146;-46
2023/04/21 06:47:54;;;;;;;3.95;2.42;;;;;;;;;;5050835;28;20491;-46
2023/04/21 06:50:29;;;;;;;2.80;2.33;;;;;;;;;;5051062;28;20060;-48
2023/04/21 06:52:56;;;;;;;6.47;2.63;;;;;;;;;;5055597;28;20140;-51
2023/04/21 06:55:24;;;;;;;6.32;2.60;;;;;;;;;;5054543;28;20067;-48
2023/04/21 06:57:57;;;;;;;3.65;2.72;;;;;;;;;;5052374;28;20045;-45
2023/04/21 07:00:25;;;;;;;5.57;2.53;;;;;;;;;;5053219;28;20555;-59
2023/04/21 07:02:59;;;;;;;5.47;2.40;;;;;;;;;;5056412;28;20084;-59
2023/04/21 07:05:26;;;;;;;4.05;2.33;;;;;;;;;;5055978;28;20153;-60
2023/04/21 07:07:58;;;;;;;6.57;2.28;;;;;;;;;;5055410;28;20056;-58
2023/04/21 07:10:31;;;;;;;3.15;2.65;;;;;;;;;;5051219;28;20431;-60
2023/04/21 07:12:58;;;;;;;7.63;2.88;;;;;;;;;;5054759;28;20067;-50
2023/04/21 07:15:36;;;;;;;8.70;3.00;;;;;;;;;;5053354;28;20052;-50
2023/04/21 07:18:03;;;;;;;5.35;2.95;;;;;;;;;;5053023;28;20135;-51
2023/04/21 07:20:30;;;;;;;6.10;2.50;;;;;;;;;;5039409;28;20420;-54
2023/04/21 07:23:03;;;;;;;8.77;2.88;;;;;;;;;;5055298;28;20049;-50
2023/04/21 07:25:31;;;;;;;5.40;2.88;;;;;;;;;;5057832;28;20155;-49
2023/04/21 07:28:05;;;;;;;9.02;2.80;;;;;;;;;;5056728;28;20052;-59
2023/04/21 07:30:32;;;;;;;5.32;2.95;;;;;;;;;;5061276;28;20066;-59
2023/04/21 07:32:59;;;;;;;7.57;3.08;;;;;;;;;;5059270;28;20473;-59
2023/04/21 07:35:34;;;;;;;4.38;3.10;;;;;;;;;;5057451;28;20506;-59
2023/04/21 07:38:01;;;;;;;4.55;3.25;;;;;;;;;;5056648;28;20049;-59
2023/04/21 07:40:36;;;;;;;7.07;3.38;;;;;;;;;;5055188;28;20056;-58
2023/04/21 07:43:09;;;;;;;4.85;3.03;;;;;;;;;;5058369;28;20584;-57
2023/04/21 07:45:51;;;;;;;5.32;3.47;;;;;;;;;;5058555;28;20051;-56
2023/04/21 07:48:18;;;;;;;13.35;2.97;;;;;;;;;;5057495;28;20122;-57
2023/04/21 07:50:53;;;;;;;8.30;3.30;;;;;;;;;;5056688;28;20162;-55
2023/04/21 07:53:20;;;;;;;10.07;3.15;;;;;;;;;;5059070;28;20044;-58
2023/04/21 07:55:47;;;;;;;12.13;3.47;;;;;;;;;;5054164;28;20140;-53
2023/04/21 07:58:21;;;;;;;13.32;3.60;;;;;;;;;;5051138;28;20056;-57
2023/04/21 08:00:48;;;;;;;7.47;3.40;;;;;;;;;;5058888;28;20056;-59
2023/04/21 08:03:23;;;;;;;12.98;3.05;;;;;;;;;;5052808;28;20045;-59
2023/04/21 08:05:51;;;;;;;10.52;3.30;;;;;;;;;;5058102;28;20053;-58
2023/04/21 08:08:20;;;;;;;6.25;3.53;;;;;;;;;;5058162;28;20075;-47
2023/04/21 08:10:56;;;;;;;7.28;3.08;;;;;;;;;;5056010;28;20055;-49
2023/04/21 08:13:24;;;;;;;6.78;3.45;;;;;;;;;;5055094;28;20049;-49
2023/04/21 08:15:57;;;;;;;6.35;3.40;;;;;;;;;;5057928;28;20056;-47
2023/04/21 08:18:25;;;;;;;4.88;3.25;;;;;;;;;;5056969;28;20048;-51
2023/04/21 08:20:52;;;;;;;6.55;2.90;;;;;;;;;;5057064;28;20514;-45
2023/04/21 08:23:26;;;;;;;5.72;2.72;;;;;;;;;;5058407;28;20041;-50
2023/04/21 08:25:53;;;;;;;4.15;2.63;;;;;;;;;;5058623;28;21343;-60
2023/04/21 08:28:27;;;;;;;4.35;3.10;;;;;;;;;;5055653;28;20110;-60
2023/04/21 08:30:54;;;;;;;4.18;2.88;;;;;;;;;;5054580;28;20080;-60
2023/04/21 08:33:21;;;;;;;5.88;3.05;;;;;;;;;;5054669;28;20128;-60
2023/04/21 08:35:57;;;;;;;5.97;2.75;;;;;;;;;;5056591;28;20172;-53
2023/04/21 08:38:36;;;;;;;5.85;2.35;;;;;;;;;;5057392;28;20052;-57
2023/04/21 08:41:10;;;;;;;6.43;2.80;;;;;;;;;;5056025;28;20056;-57
2023/04/21 08:43:43;;;;;;;;;;;;;;;;;;5054612;28;20061;-53
2023/04/21 08:46:24;;;;;;;3.83;2.20;;;;;;;;;;5055437;28;20383;-58
2023/04/21 08:48:52;;;;;;;8.77;2.70;;;;;;;;;;5058744;28;20114;-57
2023/04/21 08:51:27;;;;;;;5.57;2.40;;;;;;;;;;5056901;28;20152;-58
2023/04/21 08:54:00;;;;;;;5.28;2.40;;;;;;;;;;5055324;28;20087;-60
2023/04/21 08:56:28;;;;;;;5.70;2.25;;;;;;;;;;5056105;28;20140;-61
2023/04/21 08:59:01;;;;;;;5.60;2.53;;;;;;;;;;5057112;28;20049;-61
2023/04/21 09:01:29;;;;;;;3.28;2.17;;;;;;;;;;5055494;28;20061;-61
2023/04/21 09:04:16;;;;;;;4.20;1.92;;;;;;;;;;5052707;28;20053;-57
2023/04/21 09:06:50;;;;;;;4.95;2.30;;;;;;;;;;5055483;28;20512;-57
2023/04/21 09:09:17;;;;;;;;;;;;;;;;;;5054686;28;20478;-54
2023/04/21 09:11:55;;;;;;;3.90;1.88;;;;;;;;;;5055973;28;19920;-57
2023/04/21 09:14:28;;;;;;;2.90;1.80;;;;;;;;;;5058581;28;20135;-55
2023/04/21 09:17:02;;;;;;;5.13;1.63;;;;;;;;;;5054334;28;20134;-57
2023/04/21 09:19:33;;;;;;;3.28;1.95;;;;;;;;;;5056441;28;20138;-55
2023/04/21 09:22:07;;;;;;;5.82;1.95;;;;;;;;;;5054959;28;20045;-62
2023/04/21 09:24:34;;;;;;;2.78;1.73;;;;;;;;;;5045945;28;20144;-61
2023/04/21 09:27:09;;;;;;;2.20;1.90;;;;;;;;;;5057771;28;20079;-62
2023/04/21 09:29:37;;;;;;;5.38;2.10;;;;;;;;;;5055517;28;20067;-61
2023/04/21 09:32:04;;;;;;;;;;;;;;;;;;5057824;28;20053;-60
2023/04/21 09:34:41;;;;;;;3.92;2.20;;;;;;;;;;5046107;28;19948;-55
2023/04/21 09:37:10;;;;;;;3.83;1.75;;;;;;;;;;5055786;28;20144;-52
2023/04/21 09:39:45;;;;;;;5.38;2.00;;;;;;;;;;5056126;28;21447;-56
2023/04/21 09:42:31;;;;;;;4.13;2.17;;;;;;;;;;5054447;28;20138;-49
2023/04/21 09:45:16;;;;;;;3.40;2.05;;;;;;;;;;5052812;28;20087;-55
2023/04/21 09:48:08;;;;;;;3.40;2.17;;;;;;;;;;5054138;28;20428;-57
2023/04/21 09:50:42;;;;;;;4.40;2.08;;;;;;;;;;5056823;28;20059;-59
2023/04/21 09:53:21;;;;;;;6.45;1.83;;;;;;;;;;5057819;28;20431;-60
2023/04/21 09:55:50;;;;;;;7.45;2.72;;;;;;;;;;5055503;28;20144;-59
2023/04/21 09:58:27;;;;;;;4.90;1.90;;;;;;;;;;5054502;28;20152;-60
2023/04/21 10:00:56;;;;;;;6.47;1.77;;;;;;;;;;5053729;28;20055;-59
2023/04/21 10:03:27;;;;;;;2.22;1.70;;;;;;;;;;5055300;28;20144;-59
2023/04/21 10:06:01;;;;;;;3.38;1.90;;;;;;;;;;5053861;28;20055;-59
2023/04/21 10:08:28;;;;;;;2.80;1.98;;;;;;;;;;5056714;28;20049;-58
2023/04/21 10:11:02;;;;;;;5.55;1.75;;;;;;;;;;5055386;28;20128;-59
2023/04/21 10:13:29;;;;;;;4.53;2.00;;;;;;;;;;5053569;28;20049;-58
2023/04/21 10:16:07;;;;;;;4.78;1.90;;;;;;;;;;5055297;28;20077;-56
2023/04/21 10:18:43;;;;;;;4.25;1.80;;;;;;;;;;5041671;28;20057;-58
2023/04/21 10:21:11;;;;;;;2.85;1.92;;;;;;;;;;5053588;28;20048;-58
2023/04/21 10:23:39;;;;;;;2.72;1.92;;;;;;;;;;5057664;28;20136;-58
2023/04/21 10:26:14;;;;;;;2.30;1.52;;;;;;;;;;5039705;28;20493;-58
2023/04/21 10:28:47;;;;;;;3.20;1.60;;;;;;;;;;5053806;28;20044;-61
2023/04/21 10:31:22;;;;;;;2.33;1.63;;;;;;;;;;5054762;28;20056;-63
2023/04/21 10:34:08;;;;;;;2.20;1.50;;;;;;;;;;5055880;28;20135;-63
2023/04/21 10:36:41;;;;;;;5.50;1.90;;;;;;;;;;5052640;28;20056;-63
2023/04/21 10:39:25;;;;;;;4.85;1.67;;;;;;;;;;5055039;28;20073;-63
2023/04/21 10:41:57;;;;;;;1.42;1.33;;;;;;;;;;5057314;28;20079;-64
2023/04/21 10:44:41;;;;;;;5.10;1.85;;;;;;;;;;5055167;28;20060;-63
2023/04/21 10:47:08;;;;;;;2.75;1.73;;;;;;;;;;5053121;28;20067;-58
2023/04/21 10:49:41;;;;;;;2.28;1.40;;;;;;;;;;5054012;28;20424;-59
2023/04/21 10:52:11;;;;;;;4.18;1.77;;;;;;;;;;5055035;28;20049;-59
2023/04/21 10:54:49;;;;;;;6.28;2.10;;;;;;;;;;5054444;28;20064;-58
2023/04/21 10:57:17;;;;;;;3.08;1.48;;;;;;;;;;5056137;28;20668;-60
2023/04/21 10:59:50;;;;;;;4.20;1.73;;;;;;;;;;5056714;28;20049;-58
2023/04/21 11:02:18;;;;;;;3.28;1.60;;;;;;;;;;5053093;28;20049;-63
2023/04/21 11:04:53;;;;;;;3.67;1.80;;;;;;;;;;5053487;28;20052;-63
2023/04/21 11:07:22;;;;;;;2.75;1.75;;;;;;;;;;5054058;28;20555;-63
2023/04/21 11:10:02;;;;;;;3.90;1.60;;;;;;;;;;5055593;28;20079;-63
2023/04/21 11:12:38;;;;;;;8.20;1.70;;;;;;;;;;5054423;28;20096;-63
2023/04/21 11:15:06;;;;;;;3.95;1.45;;;;;;;;;;5054915;28;20496;-63
2023/04/21 11:17:43;;;;;;;;;;;;;;;;;;5056710;28;20454;-63
2023/04/21 11:20:10;;;;;;;2.45;1.40;;;;;;;;;;5055510;28;20403;-63
2023/04/21 11:22:37;;;;;;;3.83;1.33;;;;;;;;;;5052812;28;20084;-63
2023/04/21 11:25:18;;;;;;;4.35;1.33;;;;;;;;;;5052549;28;20049;-63
2023/04/21 11:27:55;;;;;;;4.00;1.70;;;;;;;;;;5053355;28;20056;-63
2023/04/21 11:30:35;;;;;;;4.90;1.17;;;;;;;;;;5052021;28;20105;-57
2023/04/21 11:33:02;;;;;;;4.35;1.50;;;;;;;;;;5054431;28;20049;-58
2023/04/21 11:35:39;;;;;;;2.28;1.30;;;;;;;;;;5054200;28;20049;-53
2023/04/21 11:38:07;;;;;;;7.18;1.70;;;;;;;;;;5052568;28;20083;-53
2023/04/21 11:40:50;;;;;;;4.43;1.52;;;;;;;;;;5052766;28;20060;-53
2023/04/21 11:43:23;;;;;;;3.13;1.50;;;;;;;;;;5053801;28;20075;-55
2023/04/21 11:45:57;;;;;;;3.22;1.80;;;;;;;;;;5055326;28;20131;-55
2023/04/21 11:48:33;;;;;;;2.47;1.45;;;;;;;;;;5054954;28;20121;-50
2023/04/21 11:51:01;;;;;;;5.55;1.35;;;;;;;;;;5055506;28;20139;-54
2023/04/21 11:53:34;;;;;;;5.05;1.60;;;;;;;;;;5051631;28;20143;-55
2023/04/21 11:56:02;;;;;;;4.30;1.70;;;;;;;;;;5054813;28;20563;-56
2023/04/21 11:58:35;;;;;;;5.22;1.70;;;;;;;;;;5053758;28;20048;-60
2023/04/21 12:01:09;;;;;;;3.05;1.42;;;;;;;;;;5054416;28;20084;-60
2023/04/21 12:03:50;;;;;;;1.40;1.25;;;;;;;;;;5053666;28;20088;-61
2023/04/21 12:06:25;;;;;;;3.92;1.55;;;;;;;;;;5053708;28;20076;-61
2023/04/21 12:09:03;;;;;;;2.05;1.38;;;;;;;;;;5056053;28;20051;-60
2023/04/21 12:11:30;;;;;;;2.88;1.40;;;;;;;;;;5058305;28;20060;-60
2023/04/21 12:13:58;;;;;;;3.88;1.48;;;;;;;;;;5058669;28;20131;-63
2023/04/21 12:16:31;;;;;;;2.35;1.30;;;;;;;;;;5055047;28;20059;-62
2023/04/21 12:18:59;;;;;;;2.92;1.45;;;;;;;;;;5061869;28;20051;-63
2023/04/21 12:21:33;;;;;;;3.42;1.58;;;;;;;;;;5057437;28;20049;-63
2023/04/21 12:24:00;;;;;;;2.80;1.40;;;;;;;;;;5059947;28;20148;-58
2023/04/21 12:26:27;;;;;;;2.33;1.42;;;;;;;;;;5060376;28;20052;-62
2023/04/21 12:29:00;;;;;;;2.35;1.50;;;;;;;;;;5056616;28;20139;-62
2023/04/21 12:31:28;;;;;;;4.57;1.70;;;;;;;;;;5058461;28;20056;-62
2023/04/21 12:34:02;;;;;;;3.72;1.48;;;;;;;;;;5055661;28;20603;-62
2023/04/21 12:36:29;;;;;;;2.47;1.33;;;;;;;;;;5060103;28;20052;-62
2023/04/21 12:38:57;;;;;;;2.40;1.55;;;;;;;;;;5056306;28;20049;-62
2023/04/21 12:41:31;;;;;;;5.20;1.35;;;;;;;;;;5057406;28;20091;-59
2023/04/21 12:43:58;;;;;;;2.42;1.13;;;;;;;;;;5055704;28;20052;-57
2023/04/21 12:46:38;;;;;;;6.82;1.55;;;;;;;;;;5055575;28;20057;-58
2023/04/21 12:49:11;;;;;;;3.53;1.52;;;;;;;;;;5056218;28;20068;-59
2023/04/21 12:51:46;;;;;;;6.10;1.80;;;;;;;;;;5058655;28;20057;-61
2023/04/21 12:54:19;;;;;;;3.45;1.52;;;;;;;;;;5058338;28;20072;-52
2023/04/21 12:56:47;;;;;;;;;;;;;;;;;;5056187;28;20049;-55
2023/04/21 12:59:14;;;;;;;3.92;1.80;;;;;;;;;;5056871;28;19921;-57
2023/04/21 13:01:47;;;;;;;5.75;1.98;;;;;;;;;;5056745;28;20080;-56
2023/04/21 13:04:15;;;;;;;5.45;1.95;;;;;;;;;;5055997;28;20045;-53
2023/04/21 13:06:49;;;;;;;4.28;1.83;;;;;;;;;;5054825;28;20103;-57
2023/04/21 13:09:16;;;;;;;2.58;1.58;;;;;;;;;;5057183;28;20415;-57
2023/04/21 13:11:44;;;;;;;4.10;1.83;;;;;;;;;;5056823;28;20631;-59
2023/04/21 13:14:18;;;;;;;3.17;1.50;;;;;;;;;;5054150;28;20880;-59
2023/04/21 13:16:46;;;;;;;2.45;1.60;;;;;;;;;;5056783;28;20124;-59
2023/04/21 13:19:20;;;;;;;3.22;1.60;;;;;;;;;;5056019;28;20049;-61
2023/04/21 13:21:47;;;;;;;2.75;1.70;;;;;;;;;;5054473;28;20140;-63
2023/04/21 13:24:14;;;;;;;3.55;1.80;;;;;;;;;;5056804;28;20421;-63
2023/04/21 13:26:47;;;;;;;4.60;1.70;;;;;;;;;;5059748;28;20052;-63
2023/04/21 13:29:15;;;;;;;3.35;1.42;;;;;;;;;;5055189;28;20056;-64
2023/04/21 13:31:50;;;;;;;4.72;1.92;;;;;;;;;;5056215;28;20064;-63
2023/04/21 13:34:17;;;;;;;7.18;2.10;;;;;;;;;;5054675;28;20775;-63
2023/04/21 13:36:58;;;;;;;4.90;1.90;;;;;;;;;;5054024;28;20603;-62
2023/04/21 13:39:39;;;;;;;2.55;1.55;;;;;;;;;;5055923;28;20493;-63
2023/04/21 13:42:07;;;;;;;2.70;1.90;;;;;;;;;;5056883;28;20148;-63
2023/04/21 13:44:47;;;;;;;3.08;1.50;;;;;;;;;;5054297;28;20102;-63
2023/04/21 13:47:21;;;;;;;3.20;1.67;;;;;;;;;;5054156;28;20136;-62
2023/04/21 13:49:55;;;;;;;3.20;1.67;;;;;;;;;;5058793;28;20058;-50
2023/04/21 13:52:28;;;;;;;3.75;1.60;;;;;;;;;;5053405;28;20056;-56
2023/04/21 13:55:04;;;;;;;3.60;2.00;;;;;;;;;;5053442;28;20052;-55
2023/04/21 13:57:31;;;;;;;5.70;1.80;;;;;;;;;;5057624;28;20755;-52
2023/04/21 13:59:58;;;;;;;4.25;1.52;;;;;;;;;;5054375;28;20097;-58
2023/04/21 14:02:32;;;;;;;7.07;1.30;;;;;;;;;;5052982;28;20056;-55
2023/04/21 14:04:59;;;;;;;4.57;1.30;;;;;;;;;;5050539;28;20088;-54
2023/04/21 14:07:34;;;;;;;3.25;1.40;;;;;;;;;;5037683;28;20064;-53
2023/04/21 14:10:03;;;;;;;1.30;1.20;;;;;;;;;;5056202;28;20144;-55
2023/04/21 14:12:30;;;;;;;4.90;1.33;;;;;;;;;;5053213;28;20094;-55
2023/04/21 14:15:07;;;;;;;3.47;1.33;;;;;;;;;;5055206;28;20049;-58
2023/04/21 14:17:34;;;;;;;3.25;1.70;;;;;;;;;;5056826;28;20504;-63
2023/04/21 14:20:02;;;;;;;2.38;1.23;;;;;;;;;;5056231;28;20072;-56
2023/04/21 14:22:37;;;;;;;2.45;1.27;;;;;;;;;;5055470;28;20057;-49
2023/04/21 14:25:04;;;;;;;4.85;1.25;;;;;;;;;;5054595;28;20052;-52
2023/04/21 14:27:38;;;;;;;2.63;1.40;;;;;;;;;;5055398;28;20052;-51
2023/04/21 14:30:05;;;;;;;2.85;1.17;;;;;;;;;;5054259;28;20139;-54
2023/04/21 14:32:32;;;;;;;;;;;;;;;;;;5055008;28;20151;-54
2023/04/21 14:35:07;;;;;;;3.08;1.58;;;;;;;;;;5050252;28;19939;-61
2023/04/21 14:37:34;;;;;;;4.03;1.17;;;;;;;;;;5055673;28;20060;-63
2023/04/21 14:40:08;;;;;;;5.82;1.48;;;;;;;;;;5048237;28;20542;-60
2023/04/21 14:42:35;;;;;;;;;;;;;;;;;;5054599;28;20056;-61
2023/04/21 14:45:02;;;;;;;1.95;1.25;;;;;;;;;;5055782;28;19994;-60
2023/04/21 14:47:36;;;;;;;6.47;1.13;;;;;;;;;;5054255;28;20053;-61
2023/04/21 14:50:05;;;;;;;3.30;1.60;;;;;;;;;;5053948;28;20052;-60
2023/04/21 14:52:39;;;;;;;5.95;1.60;;;;;;;;;;5051602;28;20059;-60
2023/04/21 14:55:06;;;;;;;4.22;1.30;;;;;;;;;;5056718;28;20551;-61
2023/04/21 14:57:33;;;;;;;;;;;;;;;;;;5039640;28;20072;-60
2023/04/21 15:00:09;;;;;;;3.17;1.30;;;;;;;;;;5053399;28;19932;-60
2023/04/21 15:02:38;;;;;;;5.70;1.30;;;;;;;;;;5054021;28;20155;-60
2023/04/21 15:05:07;;;;;;;2.78;1.60;;;;;;;;;;5054190;28;20826;-60
2023/04/21 15:07:41;;;;;;;2.28;1.08;;;;;;;;;;5054478;28;20048;-60
2023/04/21 15:10:09;;;;;;;2.13;1.27;;;;;;;;;;5055503;28;20158;-60
2023/04/21 15:12:44;;;;;;;2.63;1.35;;;;;;;;;;5056581;28;20090;-61